Time;durP1;ratioP1;P1;durP2;ratioP2;P2;SDS_P1;SDS_P2;PMS_P1;PMS_P2;Temp;Humidity;BMP_temperature;BMP_pressure;BME280_temperature;BME280_humidity;BME280_pressure;Samples;Min_cycle;Max_cycle;Signal;HPM_P1;HPM_P2
2022/10/26 00:03:56;;;;;;;7.2;13.8;;;;;;;12.2;83.5;99130;;;;
2022/10/26 00:14:56;;;;;;;6.1;9.7;;;;;;;12.2;83.2;99140;;;;
2022/10/26 00:24:56;;;;;;;6.1;9.7;;;;;;;11.9;82.7;99140;;;;
2022/10/26 00:35:56;;;;;;;6.1;9.7;;;;;;;11.7;82.8;99140;;;;
2022/10/26 00:45:56;;;;;;;5.8;10.4;;;;;;;11.6;82.9;99150;;;;
2022/10/26 00:56:56;;;;;;;5.8;10.4;;;;;;;11.6;83.1;99160;;;;
2022/10/26 01:06:56;;;;;;;5.8;10.4;;;;;;;11.7;83.6;99160;;;;
2022/10/26 01:16:56;;;;;;;6.6;9.9;;;;;;;11.7;84.8;99150;;;;
2022/10/26 01:27:56;;;;;;;6.6;9.9;;;;;;;11.6;85;99140;;;;
2022/10/26 01:38:56;;;;;;;6.6;9.9;;;;;;;11.3;85;99140;;;;
2022/10/26 01:49:56;;;;;;;8.2;14.5;;;;;;;11.2;85.5;99150;;;;
2022/10/26 02:00:56;;;;;;;8.2;14.5;;;;;;;11;85.3;99150;;;;
2022/10/26 02:11:56;;;;;;;8.6;13.8;;;;;;;10.8;85.5;99150;;;;
2022/10/26 02:22:56;;;;;;;8.6;13.8;;;;;;;10.6;85.2;99150;;;;
2022/10/26 02:32:56;;;;;;;8.6;13.8;;;;;;;10.4;85.3;99140;;;;
2022/10/26 02:43:56;;;;;;;7.8;13.8;;;;;;;10.2;85.6;99140;;;;
2022/10/26 02:53:57;;;;;;;7.8;13.8;;;;;;;10;85.6;99140;;;;
2022/10/26 03:04:56;;;;;;;7.8;13.8;;;;;;;9.7;86;99160;;;;
2022/10/26 03:15:56;;;;;;;6.5;11.8;;;;;;;9.4;85.9;99170;;;;
2022/10/26 03:26:56;;;;;;;6.5;11.8;;;;;;;9;86.4;99180;;;;
2022/10/26 03:36:57;;;;;;;6.5;11.8;;;;;;;8.9;86.4;99180;;;;
2022/10/26 03:47:56;;;;;;;7.4;10.1;;;;;;;8.6;87.4;99180;;;;
2022/10/26 03:57:56;;;;;;;7.4;10.1;;;;;;;8.5;88.1;99180;;;;
2022/10/26 04:07:56;;;;;;;7.4;10.1;;;;;;;8.5;88.4;99180;;;;
2022/10/26 04:17:56;;;;;;;6.7;17.2;;;;;;;8.5;88.5;99180;;;;
2022/10/26 04:28:56;;;;;;;6.7;17.2;;;;;;;8.5;88.9;99180;;;;
2022/10/26 04:38:56;;;;;;;6.7;17.2;;;;;;;8.4;89.1;99180;;;;
2022/10/26 04:48:56;;;;;;;6.4;16.9;;;;;;;8.3;88.8;99180;;;;
2022/10/26 04:59:56;;;;;;;6.4;16.9;;;;;;;8.3;88.9;99190;;;;
2022/10/26 05:09:56;;;;;;;5.3;8.1;;;;;;;8.2;88.9;99190;;;;
2022/10/26 05:19:59;;;;;;;5.3;8.1;;;;;;;8.2;88.9;99200;;;;
2022/10/26 05:29:56;;;;;;;5.3;8.1;;;;;;;8.2;88.9;99210;;;;
2022/10/26 05:39:56;;;;;;;4.9;9.7;;;;;;;8;88.7;99210;;;;
2022/10/26 05:50:56;;;;;;;4.9;9.7;;;;;;;8;88.8;99220;;;;
2022/10/26 06:01:57;;;;;;;4.9;9.7;;;;;;;8.2;89;99230;;;;
2022/10/26 06:12:57;;;;;;;5.9;9.4;;;;;;;8.3;89;99240;;;;
2022/10/26 06:22:59;;;;;;;5.9;9.4;;;;;;;8.4;89.2;99250;;;;
2022/10/26 06:33:56;;;;;;;5.9;9.4;;;;;;;8.7;89.6;99250;;;;
2022/10/26 06:44:56;;;;;;;5.5;9.1;;;;;;;9.2;90.2;99260;;;;
2022/10/26 06:54:57;;;;;;;5.5;9.1;;;;;;;9.6;90.5;99270;;;;
2022/10/26 07:04:56;;;;;;;5.5;9.1;;;;;;;10.1;90.6;99270;;;;
2022/10/26 07:15:56;;;;;;;7.7;14;;;;;;;10.5;90.1;99280;;;;
2022/10/26 07:25:56;;;;;;;7.7;14;;;;;;;11.1;89.5;99280;;;;
2022/10/26 07:35:56;;;;;;;7.7;14;;;;;;;11.6;88.8;99290;;;;
2022/10/26 07:46:57;;;;;;;8.9;12.7;;;;;;;12.2;87.5;99290;;;;
2022/10/26 07:56:56;;;;;;;8.9;12.7;;;;;;;12.6;86;99290;;;;
2022/10/26 08:07:56;;;;;;;8.9;12.7;;;;;;;13.2;84.5;99290;;;;
2022/10/26 08:17:56;;;;;;;6.1;8.8;;;;;;;13.7;83.2;99290;;;;
2022/10/26 08:27:56;;;;;;;6.1;8.8;;;;;;;14.1;81.8;99280;;;;
2022/10/26 08:38:57;;;;;;;4.1;6.8;;;;;;;14.5;80.3;99280;;;;
2022/10/26 08:49:57;;;;;;;4.1;6.8;;;;;;;14.9;78.1;99270;;;;
2022/10/26 09:00:57;;;;;;;4.1;6.8;;;;;;;15.2;76.4;99270;;;;
2022/10/26 09:10:56;;;;;;;4;8.9;;;;;;;15.6;75.5;99270;;;;
2022/10/26 09:20:56;;;;;;;4;8.9;;;;;;;15.9;74.4;99270;;;;
2022/10/26 09:30:56;;;;;;;4;8.9;;;;;;;16.3;75.1;99270;;;;
2022/10/26 09:41:56;;;;;;;3.4;7.7;;;;;;;16.6;74;99270;;;;
2022/10/26 09:51:57;;;;;;;3.4;7.7;;;;;;;16.9;70.9;99280;;;;
2022/10/26 10:02:57;;;;;;;3.4;7.7;;;;;;;17.1;69.6;99280;;;;
2022/10/26 10:12:57;;;;;;;2.9;6.9;;;;;;;17.2;68.9;99280;;;;
2022/10/26 10:23:57;;;;;;;2.9;6.9;;;;;;;17.4;68.3;99270;;;;
2022/10/26 10:34:56;;;;;;;2.9;6.9;;;;;;;17.7;67.4;99260;;;;
2022/10/26 10:44:57;;;;;;;4.8;8;;;;;;;17.9;66.6;99260;;;;
2022/10/26 10:55:57;;;;;;;4.8;8;;;;;;;18.2;67;99260;;;;
2022/10/26 11:06:57;;;;;;;4.8;8;;;;;;;18.2;65.7;99250;;;;
2022/10/26 11:16:57;;;;;;;3.3;6.8;;;;;;;18.4;64.2;99250;;;;
2022/10/26 11:27:57;;;;;;;3.3;6.8;;;;;;;18.4;62.9;99260;;;;
2022/10/26 11:37:57;;;;;;;3.3;6.8;;;;;;;18.6;63;99250;;;;
2022/10/26 11:48:57;;;;;;;2.3;6.1;;;;;;;18.5;61.8;99250;;;;
2022/10/26 11:59:56;;;;;;;2.3;6.1;;;;;;;18.5;61.7;99250;;;;
2022/10/26 12:10:57;;;;;;;2.6;5.3;;;;;;;18.7;60.9;99250;;;;
2022/10/26 12:21:01;;;;;;;2.6;5.3;;;;;;;18.7;60;99250;;;;
2022/10/26 12:30:57;;;;;;;2.6;5.3;;;;;;;18.8;59.3;99250;;;;
2022/10/26 12:41:57;;;;;;;1.9;5.9;;;;;;;18.8;59.8;99240;;;;
2022/10/26 12:52:57;;;;;;;1.9;5.9;;;;;;;18.7;59.3;99240;;;;
2022/10/26 13:03:57;;;;;;;1.9;5.9;;;;;;;18.7;58.5;99240;;;;
2022/10/26 13:13:57;;;;;;;1.7;4.6;;;;;;;18.7;58.2;99240;;;;
2022/10/26 13:23:57;;;;;;;1.7;4.6;;;;;;;18.6;57.7;99240;;;;
2022/10/26 13:34:57;;;;;;;1.7;4.6;;;;;;;18.5;58.2;99250;;;;
2022/10/26 13:45:57;;;;;;;2;4.1;;;;;;;18.3;58.5;99250;;;;
2022/10/26 13:56:57;;;;;;;2;4.1;;;;;;;18.3;58.7;99250;;;;
2022/10/26 14:06:57;;;;;;;2;4.1;;;;;;;18.1;59.3;99260;;;;
2022/10/26 14:17:57;;;;;;;2.3;4.9;;;;;;;18;60.9;99260;;;;
2022/10/26 14:27:57;;;;;;;2.3;4.9;;;;;;;17.6;61.5;99260;;;;
2022/10/26 14:38:57;;;;;;;2.7;6.8;;;;;;;17.2;62;99260;;;;
2022/10/26 14:48:57;;;;;;;2.7;6.8;;;;;;;16.7;63.6;99270;;;;
2022/10/26 14:59:57;;;;;;;2.7;6.8;;;;;;;16.1;65;99280;;;;
2022/10/26 15:09:57;;;;;;;3.5;9.7;;;;;;;15.5;66.5;99280;;;;
2022/10/26 15:19:57;;;;;;;3.5;9.7;;;;;;;14.9;67.3;99290;;;;
2022/10/26 15:30:57;;;;;;;3.5;9.7;;;;;;;14.3;68.8;99300;;;;
2022/10/26 15:40:57;;;;;;;4.6;9.8;;;;;;;14;71.4;99310;;;;
2022/10/26 15:50:57;;;;;;;4.6;9.8;;;;;;;13.5;72.2;99320;;;;
2022/10/26 16:01:57;;;;;;;4.6;9.8;;;;;;;13.1;73.9;99320;;;;
2022/10/26 16:12:58;;;;;;;6.1;11.8;;;;;;;12.8;75.2;99330;;;;
2022/10/26 16:22:59;;;;;;;6.1;11.8;;;;;;;12.5;75.9;99340;;;;
2022/10/26 16:33:57;;;;;;;6.1;11.8;;;;;;;12.2;77;99340;;;;
2022/10/26 16:43:57;;;;;;;10.4;16;;;;;;;12;77.5;99350;;;;
2022/10/26 16:54:57;;;;;;;10.4;16;;;;;;;11.9;79.1;99350;;;;
2022/10/26 17:05:57;;;;;;;10.4;16;;;;;;;11.7;78.9;99360;;;;
2022/10/26 17:15:57;;;;;;;19.4;25.8;;;;;;;11.5;79.2;99370;;;;
2022/10/26 17:26:57;;;;;;;19.4;25.8;;;;;;;11.3;80;99380;;;;
2022/10/26 17:36:57;;;;;;;19.4;25.8;;;;;;;11.1;80.8;99400;;;;
2022/10/26 17:46:57;;;;;;;20.5;29.1;;;;;;;11.1;81.5;99410;;;;
2022/10/26 17:56:57;;;;;;;20.5;29.1;;;;;;;10.9;81.3;99410;;;;
2022/10/26 18:07:57;;;;;;;20.5;29.1;;;;;;;11;83.1;99420;;;;
2022/10/26 18:18:58;;;;;;;17.2;24.6;;;;;;;11.1;83.1;99430;;;;
2022/10/26 18:29:57;;;;;;;17.2;24.6;;;;;;;11.1;82.5;99430;;;;
2022/10/26 18:40:57;;;;;;;17.6;22.5;;;;;;;11;81.9;99450;;;;
2022/10/26 18:50:57;;;;;;;17.6;22.5;;;;;;;10.8;82.1;99460;;;;
2022/10/26 19:00:57;;;;;;;17.6;22.5;;;;;;;10.7;82;99470;;;;
2022/10/26 19:11:57;;;;;;;33;43.7;;;;;;;10.6;82.3;99480;;;;
2022/10/26 19:21:59;;;;;;;33;43.7;;;;;;;10.5;82.4;99490;;;;
2022/10/26 19:32:58;;;;;;;33;43.7;;;;;;;10.3;82.7;99500;;;;
2022/10/26 19:43:57;;;;;;;25.3;32.3;;;;;;;10.1;83.3;99510;;;;
2022/10/26 19:54:57;;;;;;;25.3;32.3;;;;;;;9.8;83.6;99520;;;;
2022/10/26 20:05:57;;;;;;;25.3;32.3;;;;;;;9.5;84.6;99530;;;;
2022/10/26 20:15:57;;;;;;;21.2;31.4;;;;;;;9.3;84.2;99540;;;;
2022/10/26 20:26:57;;;;;;;21.2;31.4;;;;;;;9.1;84.4;99550;;;;
2022/10/26 20:37:57;;;;;;;21.2;31.4;;;;;;;9;85.3;99560;;;;
2022/10/26 20:47:57;;;;;;;16.1;21;;;;;;;9.1;86.6;99570;;;;
2022/10/26 20:58:57;;;;;;;16.1;21;;;;;;;9.2;87.5;99570;;;;
2022/10/26 21:08:57;;;;;;;12.1;15.4;;;;;;;9.3;87.6;99580;;;;
2022/10/26 21:19:57;;;;;;;12.1;15.4;;;;;;;9.4;88.1;99580;;;;
2022/10/26 21:30:57;;;;;;;12.1;15.4;;;;;;;9.4;87.5;99580;;;;
2022/10/26 21:40:57;;;;;;;12.8;19.4;;;;;;;9.2;87.6;99590;;;;
2022/10/26 21:50:57;;;;;;;12.8;19.4;;;;;;;9.1;87.3;99600;;;;
2022/10/26 22:00:57;;;;;;;12.8;19.4;;;;;;;9;87.1;99600;;;;
2022/10/26 22:10:57;;;;;;;11.5;15.7;;;;;;;8.9;86.9;99600;;;;
2022/10/26 22:21:57;;;;;;;11.5;15.7;;;;;;;8.7;86.3;99610;;;;
2022/10/26 22:32:57;;;;;;;11.5;15.7;;;;;;;8.5;85.9;99620;;;;
2022/10/26 22:43:57;;;;;;;11.7;16.5;;;;;;;8.3;86.1;99620;;;;
2022/10/26 22:54:57;;;;;;;11.7;16.5;;;;;;;8.1;87;99610;;;;
2022/10/26 23:05:58;;;;;;;11.7;16.5;;;;;;;7.9;86.9;99620;;;;
2022/10/26 23:16:57;;;;;;;9.2;14.5;;;;;;;7.7;86.9;99630;;;;
2022/10/26 23:26:57;;;;;;;9.2;14.5;;;;;;;7.5;86.9;99630;;;;
2022/10/26 23:37:57;;;;;;;9.2;14.5;;;;;;;7.3;86.9;99630;;;;
2022/10/26 23:47:57;;;;;;;8;11.8;;;;;;;7.2;87.1;99640;;;;
2022/10/26 23:58:59;;;;;;;8;11.8;;;;;;;7.1;87.2;99640;;;;
